Time;durP1;ratioP1;P1;durP2;ratioP2;P2;SDS_P1;SDS_P2;PMS_P1;PMS_P2;Temp;Humidity;BMP_temperature;BMP_pressure;BME280_temperature;BME280_humidity;BME280_pressure;Samples;Min_cycle;Max_cycle;Signal;HPM_P1;HPM_P2
2021/01/27 00:00:33;;;;;;;1.33;1.00;;;2.50;99.90;;;;;;5026268;28;20018;-71
2021/01/27 00:03:00;;;;;;;0.70;0.70;;;2.50;99.90;;;;;;5020213;28;20022;-71
2021/01/27 00:05:36;;;;;;;0.55;0.55;;;2.50;99.90;;;;;;5024854;28;20033;-71
2021/01/27 00:08:03;;;;;;;;;;;2.40;99.90;;;;;;5026245;28;20329;-71
2021/01/27 00:10:29;;;;;;;5.88;2.40;;;2.40;99.90;;;;;;5036150;28;20219;-72
2021/01/27 00:12:56;;;;;;;0.95;0.95;;;2.40;99.90;;;;;;5033250;28;20029;-71
2021/01/27 00:15:37;;;;;;;1.30;1.20;;;2.40;99.90;;;;;;5026578;28;20048;-68
2021/01/27 00:18:05;;;;;;;1.08;0.98;;;2.40;99.90;;;;;;5029693;28;20095;-69
2021/01/27 00:20:30;;;;;;;1.02;1.02;;;2.40;99.90;;;;;;5015101;28;20032;-69
2021/01/27 00:22:57;;;;;;;0.40;0.40;;;2.40;99.90;;;;;;5017107;28;20042;-68
2021/01/27 00:25:26;;;;;;;0.73;0.73;;;2.40;99.90;;;;;;5015609;28;20032;-69
2021/01/27 00:27:52;;;;;;;0.77;0.77;;;2.40;99.90;;;;;;5017488;28;20109;-69
2021/01/27 00:30:23;;;;;;;1.13;1.10;;;2.40;99.90;;;;;;5017253;28;20069;-69
2021/01/27 00:32:49;;;;;;;0.82;0.82;;;2.40;99.90;;;;;;5006888;28;20041;-69
2021/01/27 00:35:25;;;;;;;1.42;1.35;;;2.30;99.90;;;;;;5021860;28;20044;-69
2021/01/27 00:37:51;;;;;;;0.22;0.22;;;2.30;99.90;;;;;;5016652;28;20038;-69
2021/01/27 00:40:17;;;;;;;1.43;1.30;;;2.30;99.90;;;;;;5017057;28;20033;-69
2021/01/27 00:42:42;;;;;;;0.70;0.70;;;2.30;99.90;;;;;;5013140;28;20025;-69
2021/01/27 00:45:08;;;;;;;2.17;1.17;;;2.30;99.90;;;;;;5024260;28;20045;-69
2021/01/27 00:47:34;;;;;;;0.87;0.87;;;2.30;99.90;;;;;;5017688;28;20029;-69
2021/01/27 00:50:00;;;;;;;0.93;0.87;;;2.30;99.90;;;;;;5021207;28;20306;-69
2021/01/27 00:52:26;;;;;;;0.63;0.63;;;2.30;99.90;;;;;;5013204;28;20432;-68
2021/01/27 00:54:52;;;;;;;2.23;1.60;;;2.30;99.90;;;;;;5018966;28;20111;-69
2021/01/27 00:57:18;;;;;;;0.93;0.80;;;2.30;99.90;;;;;;5015450;28;20037;-69
2021/01/27 00:59:44;;;;;;;0.57;0.57;;;2.30;99.90;;;;;;5011566;28;20038;-69
2021/01/27 01:02:09;;;;;;;5.43;2.13;;;2.30;99.90;;;;;;5013914;28;20026;-69
2021/01/27 01:04:35;;;;;;;1.20;1.13;;;2.30;99.90;;;;;;5013535;28;20022;-69
2021/01/27 01:07:01;;;;;;;1.37;1.23;;;2.30;99.90;;;;;;5013962;28;20034;-68
2021/01/27 01:09:27;;;;;;;0.60;0.60;;;2.30;99.90;;;;;;5019840;28;20667;-69
2021/01/27 01:11:53;;;;;;;6.40;2.85;;;2.20;99.90;;;;;;4998675;28;20439;-69
2021/01/27 01:14:19;;;;;;;4.78;1.92;;;2.20;99.90;;;;;;5014409;28;20458;-69
2021/01/27 01:16:45;;;;;;;1.13;1.07;;;2.20;99.90;;;;;;5015197;28;20049;-68
2021/01/27 01:19:11;;;;;;;0.57;0.57;;;2.20;99.90;;;;;;5025194;28;20026;-69
2021/01/27 01:21:37;;;;;;;1.35;1.20;;;2.20;99.90;;;;;;5014434;28;20324;-69
2021/01/27 01:24:03;;;;;;;4.10;0.93;;;2.20;99.90;;;;;;5026718;28;20034;-69
2021/01/27 01:26:29;;;;;;;0.47;0.47;;;2.20;99.90;;;;;;5019356;28;20034;-69
2021/01/27 01:28:54;;;;;;;1.40;0.93;;;2.20;99.90;;;;;;5032276;28;20045;-69
2021/01/27 01:31:20;;;;;;;1.10;0.47;;;2.20;99.90;;;;;;5024927;28;20110;-69
2021/01/27 01:33:45;;;;;;;0.30;0.30;;;2.10;99.90;;;;;;5014340;28;20076;-69
2021/01/27 01:36:11;;;;;;;0.80;0.80;;;2.10;99.90;;;;;;5029152;28;20087;-69
2021/01/27 01:38:38;;;;;;;1.93;1.00;;;2.10;99.90;;;;;;5018639;28;20030;-69
2021/01/27 01:41:04;;;;;;;0.75;0.57;;;2.10;99.90;;;;;;5027483;28;20198;-69
2021/01/27 01:43:33;;;;;;;1.63;1.30;;;2.10;99.90;;;;;;5011729;28;20034;-68
2021/01/27 01:46:01;;;;;;;1.75;1.00;;;2.10;99.90;;;;;;5013365;28;20029;-68
2021/01/27 01:48:47;;;;;;;0.98;0.98;;;2.10;99.90;;;;;;5014115;28;20057;-69
2021/01/27 01:51:24;;;;;;;4.15;1.52;;;2.10;99.90;;;;;;5007185;28;20026;-70
2021/01/27 01:53:52;;;;;;;2.00;1.10;;;2.00;99.90;;;;;;5012017;28;20038;-69
2021/01/27 01:56:22;;;;;;;2.50;1.55;;;2.00;99.90;;;;;;5009311;28;20045;-69
2021/01/27 01:58:55;;;;;;;6.00;1.70;;;2.00;99.90;;;;;;5020721;28;20056;-69
2021/01/27 02:01:21;;;;;;;1.95;1.13;;;2.00;99.90;;;;;;5006553;28;20034;-68
2021/01/27 02:03:49;;;;;;;1.55;1.45;;;2.00;99.90;;;;;;5024098;28;20026;-69
2021/01/27 02:06:15;;;;;;;10.05;1.80;;;2.00;99.90;;;;;;5013051;28;20029;-68
2021/01/27 02:08:48;;;;;;;1.27;1.20;;;2.00;99.90;;;;;;5020592;28;20030;-69
2021/01/27 02:11:20;;;;;;;1.08;0.95;;;2.00;99.90;;;;;;5013720;28;20069;-68
2021/01/27 02:14:21;;;;;;;0.95;0.95;;;2.00;99.90;;;;;;5016645;28;20038;-69
2021/01/27 02:17:19;;;;;;;1.63;0.93;;;2.00;99.90;;;;;;5012512;28;20060;-68
2021/01/27 02:20:26;;;;;;;1.45;1.35;;;2.10;99.90;;;;;;5012124;28;20038;-69
2021/01/27 02:23:25;;;;;;;1.10;1.10;;;2.00;99.90;;;;;;5013098;28;20029;-69
2021/01/27 02:26:27;;;;;;;1.33;1.15;;;2.10;99.90;;;;;;5014325;28;20383;-69
2021/01/27 02:29:11;;;;;;;1.00;1.00;;;2.00;99.90;;;;;;5025020;28;20108;-68
2021/01/27 02:31:51;;;;;;;1.65;1.45;;;2.00;99.90;;;;;;5008875;28;20050;-69
2021/01/27 02:34:35;;;;;;;1.92;1.40;;;2.10;99.90;;;;;;5011092;28;20108;-68
2021/01/27 02:37:07;;;;;;;1.65;1.55;;;2.10;99.90;;;;;;5019997;28;20025;-69
2021/01/27 02:39:37;;;;;;;3.83;1.65;;;2.10;99.90;;;;;;5013002;28;20057;-69
2021/01/27 02:42:13;;;;;;;2.63;2.42;;;2.10;99.90;;;;;;5022358;28;20037;-69
2021/01/27 02:44:48;;;;;;;1.23;1.10;;;2.00;99.90;;;;;;5013191;28;20022;-68
2021/01/27 02:47:23;;;;;;;5.85;1.08;;;2.10;99.90;;;;;;5013341;28;20275;-69
2021/01/27 02:50:04;;;;;;;1.00;1.00;;;2.10;99.90;;;;;;5026108;28;20071;-71
2021/01/27 02:52:38;;;;;;;0.77;0.77;;;2.10;99.90;;;;;;5024996;28;20026;-71
2021/01/27 02:55:09;;;;;;;3.13;1.88;;;2.10;99.90;;;;;;5026693;28;20026;-71
2021/01/27 02:57:40;;;;;;;1.25;1.15;;;2.00;99.90;;;;;;5015515;28;20060;-69
2021/01/27 03:00:29;;;;;;;1.42;1.33;;;2.10;99.90;;;;;;5020929;28;20026;-69
2021/01/27 03:03:04;;;;;;;1.33;1.23;;;2.10;99.90;;;;;;5016602;28;20069;-69
2021/01/27 03:05:38;;;;;;;1.45;0.93;;;2.00;99.90;;;;;;5024600;28;20025;-69
2021/01/27 03:08:28;;;;;;;0.68;0.68;;;2.00;99.90;;;;;;5023431;28;20037;-68
2021/01/27 03:11:00;;;;;;;1.85;1.38;;;2.10;99.90;;;;;;5014243;28;20116;-68
2021/01/27 03:13:26;;;;;;;1.38;1.27;;;2.10;99.90;;;;;;4984803;28;20328;-69
2021/01/27 03:15:56;;;;;;;0.70;0.70;;;2.10;99.90;;;;;;5012736;28;20030;-68
2021/01/27 03:18:29;;;;;;;2.30;2.20;;;2.10;99.90;;;;;;5026475;28;20029;-70
2021/01/27 03:21:03;;;;;;;1.98;1.33;;;2.00;99.90;;;;;;5023429;28;20029;-69
2021/01/27 03:23:42;;;;;;;1.15;1.02;;;2.00;99.90;;;;;;5013125;28;20025;-69
2021/01/27 03:26:51;;;;;;;2.80;0.68;;;2.00;99.90;;;;;;5016480;28;20022;-68
2021/01/27 03:29:57;;;;;;;1.95;1.00;;;2.00;99.90;;;;;;5016003;28;20052;-69
2021/01/27 03:32:38;;;;;;;;;;;2.00;99.90;;;;;;5009913;28;20087;-69
2021/01/27 03:35:31;;;;;;;1.30;0.60;;;2.00;99.90;;;;;;4994045;28;19949;-69
2021/01/27 03:38:20;;;;;;;1.50;1.40;;;2.00;99.90;;;;;;5004087;28;20503;-69
2021/01/27 03:40:48;;;;;;;0.80;0.47;;;2.00;99.90;;;;;;5010059;28;20140;-69
2021/01/27 03:43:19;;;;;;;2.05;1.08;;;2.00;99.90;;;;;;5012390;28;20429;-69
2021/01/27 03:45:50;;;;;;;1.17;1.15;;;1.90;99.90;;;;;;5014929;28;20161;-69
2021/01/27 03:48:41;;;;;;;0.50;0.43;;;1.90;99.90;;;;;;5013112;28;20077;-69
2021/01/27 03:51:09;;;;;;;3.42;1.08;;;1.90;99.90;;;;;;5012816;28;20105;-69
2021/01/27 03:53:35;;;;;;;4.45;1.23;;;1.90;99.90;;;;;;5013104;28;20101;-69
2021/01/27 03:56:25;;;;;;;0.77;0.77;;;2.00;99.90;;;;;;5008656;28;20050;-69
2021/01/27 03:58:51;;;;;;;0.60;0.60;;;2.00;99.90;;;;;;5012139;28;20037;-69
2021/01/27 04:01:20;;;;;;;1.23;1.13;;;1.90;99.90;;;;;;5009264;28;20044;-69
2021/01/27 04:03:47;;;;;;;1.27;1.27;;;1.90;99.90;;;;;;5009272;28;20336;-69
2021/01/27 04:06:13;;;;;;;0.77;0.77;;;1.90;99.90;;;;;;5008634;28;20034;-69
2021/01/27 04:08:44;;;;;;;2.67;0.80;;;2.00;99.90;;;;;;5014396;28;20041;-69
2021/01/27 04:11:11;;;;;;;0.45;0.45;;;1.90;99.90;;;;;;5020392;28;20068;-69
2021/01/27 04:13:37;;;;;;;1.85;1.35;;;2.00;99.90;;;;;;5013509;28;20022;-68
2021/01/27 04:16:03;;;;;;;0.40;0.40;;;1.90;99.90;;;;;;5011258;28;20080;-69
2021/01/27 04:18:29;;;;;;;3.00;1.60;;;2.00;99.90;;;;;;5017325;28;20479;-69
2021/01/27 04:20:55;;;;;;;0.88;0.73;;;1.90;99.90;;;;;;5018384;28;20030;-69
2021/01/27 04:23:21;;;;;;;0.97;0.97;;;1.90;99.90;;;;;;5018799;28;20049;-69
2021/01/27 04:25:47;;;;;;;1.40;1.30;;;1.90;99.90;;;;;;5019771;28;20271;-68
2021/01/27 04:28:13;;;;;;;0.83;0.67;;;1.90;99.90;;;;;;5015062;28;20026;-69
2021/01/27 04:30:39;;;;;;;2.28;1.20;;;1.90;99.90;;;;;;5014386;28;20363;-69
2021/01/27 04:33:07;;;;;;;0.83;0.70;;;1.90;99.90;;;;;;5021362;28;20109;-69
2021/01/27 04:35:34;;;;;;;0.88;0.88;;;1.90;99.90;;;;;;5013312;28;20378;-69
2021/01/27 04:38:00;;;;;;;0.50;0.50;;;1.90;99.90;;;;;;5014100;28;20468;-69
2021/01/27 04:40:42;;;;;;;3.60;1.47;;;1.90;99.90;;;;;;5012774;28;20413;-68
2021/01/27 04:43:22;;;;;;;0.93;0.93;;;1.80;99.90;;;;;;5014468;28;20705;-69
2021/01/27 04:46:01;;;;;;;0.75;0.57;;;1.80;99.90;;;;;;5028693;28;20029;-69
2021/01/27 04:48:40;;;;;;;0.60;0.60;;;1.80;99.90;;;;;;5011920;28;20049;-69
2021/01/27 04:51:13;;;;;;;0.68;0.60;;;1.80;99.90;;;;;;5015124;28;20033;-69
2021/01/27 04:54:16;;;;;;;1.17;1.08;;;1.80;99.90;;;;;;5013003;28;20092;-69
2021/01/27 04:57:06;;;;;;;1.52;1.33;;;1.70;99.90;;;;;;5010784;28;20064;-68
2021/01/27 05:00:01;;;;;;;0.35;0.35;;;1.70;99.90;;;;;;5012618;28;20034;-69
2021/01/27 05:02:39;;;;;;;0.80;0.80;;;1.70;99.90;;;;;;5016373;28;20028;-69
2021/01/27 05:05:07;;;;;;;0.65;0.65;;;1.70;99.90;;;;;;5017410;28;20108;-69
2021/01/27 05:07:56;;;;;;;0.68;0.65;;;1.70;99.90;;;;;;5015315;28;20065;-69
2021/01/27 05:10:28;;;;;;;0.32;0.32;;;1.70;99.90;;;;;;5014001;28;20032;-69
2021/01/27 05:13:03;;;;;;;0.73;0.73;;;1.70;99.90;;;;;;5017712;28;20029;-69
2021/01/27 05:15:30;;;;;;;0.80;0.47;;;1.70;99.90;;;;;;5015684;28;20026;-68
2021/01/27 05:17:57;;;;;;;;;;;1.70;99.90;;;;;;5024811;28;20072;-68
2021/01/27 05:20:23;;;;;;;0.50;0.50;;;1.70;99.90;;;;;;5023230;28;19910;-68
2021/01/27 05:22:49;;;;;;;0.30;0.30;;;1.70;99.90;;;;;;5018710;28;20436;-68
2021/01/27 05:25:28;;;;;;;0.40;0.40;;;1.70;99.90;;;;;;5019012;28;20026;-68
2021/01/27 05:27:57;;;;;;;1.95;0.77;;;1.70;99.90;;;;;;5025518;28;20803;-68
2021/01/27 05:30:25;;;;;;;1.23;1.00;;;1.70;99.90;;;;;;5022900;28;20022;-69
2021/01/27 05:32:56;;;;;;;1.75;1.02;;;1.70;99.90;;;;;;5023830;28;20029;-69
2021/01/27 05:35:34;;;;;;;0.63;0.63;;;1.70;99.90;;;;;;5021300;28;20026;-69
2021/01/27 05:38:22;;;;;;;0.43;0.43;;;1.70;99.90;;;;;;5014784;28;20542;-68
2021/01/27 05:40:49;;;;;;;0.80;0.77;;;1.70;99.90;;;;;;5024328;28;20018;-69
2021/01/27 05:43:16;;;;;;;;;;;1.70;99.90;;;;;;5002036;28;20101;-68
2021/01/27 05:45:46;;;;;;;1.35;1.25;;;1.70;99.90;;;;;;5013378;28;19913;-69
2021/01/27 05:48:21;;;;;;;1.15;1.08;;;1.70;99.90;;;;;;5011859;28;20037;-68
2021/01/27 05:50:47;;;;;;;0.65;0.65;;;1.70;99.90;;;;;;5012569;28;20075;-68
2021/01/27 05:53:20;;;;;;;0.47;0.30;;;1.70;99.90;;;;;;5013033;28;20026;-68
2021/01/27 05:56:02;;;;;;;1.42;1.33;;;1.70;99.90;;;;;;5012125;28;20423;-69
2021/01/27 05:58:31;;;;;;;0.50;0.50;;;1.70;99.90;;;;;;5011220;28;20048;-69
2021/01/27 06:01:14;;;;;;;2.25;1.15;;;1.70;99.90;;;;;;5011404;28;20117;-68
2021/01/27 06:03:49;;;;;;;1.48;1.38;;;1.70;99.90;;;;;;5013038;28;20033;-68
2021/01/27 06:06:15;;;;;;;1.08;0.80;;;1.70;99.90;;;;;;5013613;28;20040;-68
2021/01/27 06:08:52;;;;;;;1.30;1.23;;;1.70;99.90;;;;;;5011905;28;20034;-68
2021/01/27 06:11:19;;;;;;;1.27;1.17;;;1.70;99.90;;;;;;5011211;28;20368;-68
2021/01/27 06:13:46;;;;;;;;;;;1.70;99.90;;;;;;5015669;28;20424;-68
2021/01/27 06:16:34;;;;;;;4.53;2.28;;;1.70;99.90;;;;;;5012663;28;19909;-67
2021/01/27 06:19:12;;;;;;;4.32;2.90;;;1.70;99.90;;;;;;5015127;28;20352;-68
2021/01/27 06:22:02;;;;;;;3.80;3.42;;;1.80;99.90;;;;;;5014644;28;20049;-68
2021/01/27 06:25:12;;;;;;;3.42;1.17;;;1.70;99.90;;;;;;5015148;28;20372;-68
2021/01/27 06:27:55;;;;;;;2.20;2.10;;;1.80;99.90;;;;;;5015667;28;20026;-67
2021/01/27 06:30:42;;;;;;;2.65;2.45;;;1.80;99.90;;;;;;5015609;28;20140;-68
2021/01/27 06:33:13;;;;;;;2.58;2.38;;;1.80;99.90;;;;;;5031021;28;20046;-68
2021/01/27 06:36:25;;;;;;;2.00;1.90;;;1.80;99.90;;;;;;5014066;28;20048;-68
2021/01/27 06:39:12;;;;;;;2.45;1.60;;;1.80;99.90;;;;;;5001143;28;20459;-68
2021/01/27 06:41:45;;;;;;;1.38;1.17;;;1.80;99.90;;;;;;5003966;28;20048;-68
2021/01/27 06:44:32;;;;;;;4.80;2.63;;;1.80;99.90;;;;;;5015602;28;20022;-68
2021/01/27 06:47:14;;;;;;;6.60;1.00;;;1.80;99.90;;;;;;5016725;28;20033;-68
2021/01/27 06:49:50;;;;;;;1.17;1.08;;;1.80;99.90;;;;;;5016456;28;20050;-68
2021/01/27 06:52:37;;;;;;;0.85;0.80;;;1.80;99.90;;;;;;5005799;28;20459;-68
2021/01/27 06:55:11;;;;;;;0.95;0.90;;;1.80;99.90;;;;;;5014795;28;20417;-68
2021/01/27 06:58:08;;;;;;;0.75;0.75;;;1.80;99.90;;;;;;5014448;28;20068;-68
2021/01/27 07:00:49;;;;;;;1.52;1.02;;;1.90;99.90;;;;;;5014643;28;20084;-69
2021/01/27 07:03:39;;;;;;;2.05;1.90;;;1.80;99.90;;;;;;5015565;28;20025;-68
2021/01/27 07:06:29;;;;;;;1.05;0.95;;;1.90;99.90;;;;;;5015356;28;20022;-68
2021/01/27 07:09:14;;;;;;;1.83;1.25;;;1.90;99.90;;;;;;5015699;28;20030;-68
2021/01/27 07:12:05;;;;;;;2.47;1.98;;;1.90;99.90;;;;;;5012586;28;20026;-68
2021/01/27 07:15:03;;;;;;;1.10;1.00;;;1.90;99.90;;;;;;5014267;28;20117;-69
2021/01/27 07:17:32;;;;;;;3.10;2.15;;;1.90;99.90;;;;;;4995952;28;20038;-68
2021/01/27 07:20:06;;;;;;;1.10;0.77;;;1.90;99.90;;;;;;5013338;28;20135;-68
2021/01/27 07:22:47;;;;;;;0.95;0.95;;;1.90;99.90;;;;;;5015724;28;20038;-68
2021/01/27 07:25:28;;;;;;;0.60;0.60;;;1.90;99.90;;;;;;5016512;28;20105;-69
2021/01/27 07:28:05;;;;;;;0.82;0.77;;;1.90;99.90;;;;;;5015060;28;20111;-68
2021/01/27 07:30:57;;;;;;;1.23;1.13;;;1.90;99.90;;;;;;5014391;28;20034;-68
2021/01/27 07:33:33;;;;;;;1.58;1.13;;;2.00;99.90;;;;;;4998602;28;20057;-68
2021/01/27 07:36:17;;;;;;;1.77;1.50;;;2.00;99.90;;;;;;5015027;28;20025;-69
2021/01/27 07:38:45;;;;;;;0.95;0.95;;;2.00;99.90;;;;;;5014522;28;20022;-68
2021/01/27 07:41:18;;;;;;;1.90;1.73;;;2.00;99.90;;;;;;5012579;28;20022;-68
2021/01/27 07:44:03;;;;;;;6.13;1.75;;;2.00;99.90;;;;;;5014681;28;20026;-69
2021/01/27 07:46:38;;;;;;;3.15;1.65;;;2.00;99.90;;;;;;5013763;28;20421;-68
2021/01/27 07:49:05;;;;;;;0.82;0.80;;;2.00;99.90;;;;;;5014251;28;20125;-68
2021/01/27 07:51:56;;;;;;;0.88;0.88;;;2.00;99.90;;;;;;5014241;28;20033;-69
2021/01/27 07:54:37;;;;;;;1.55;1.45;;;2.00;99.90;;;;;;5013894;28;20125;-68
2021/01/27 07:57:23;;;;;;;1.45;1.00;;;2.10;99.90;;;;;;5003248;28;20065;-68
2021/01/27 08:00:10;;;;;;;0.80;0.75;;;2.10;99.90;;;;;;5003121;28;20049;-68
2021/01/27 08:02:53;;;;;;;0.50;0.50;;;2.10;99.90;;;;;;5012485;28;20307;-68
2021/01/27 08:05:19;;;;;;;2.50;0.77;;;2.10;99.90;;;;;;5014148;28;20029;-68
2021/01/27 08:07:58;;;;;;;0.63;0.63;;;2.10;99.90;;;;;;5014453;28;20033;-69
2021/01/27 08:10:27;;;;;;;0.60;0.60;;;2.10;99.90;;;;;;5016030;28;20112;-68
2021/01/27 08:13:02;;;;;;;4.55;1.27;;;2.10;99.90;;;;;;5012946;28;20025;-69
2021/01/27 08:15:28;;;;;;;0.98;0.85;;;2.10;99.90;;;;;;5013157;28;20030;-69
2021/01/27 08:17:54;;;;;;;1.17;1.17;;;2.10;99.90;;;;;;5016575;28;20018;-68
2021/01/27 08:20:27;;;;;;;1.67;1.57;;;2.10;99.90;;;;;;5014738;28;20064;-68
2021/01/27 08:23:00;;;;;;;0.75;0.73;;;2.10;99.90;;;;;;5014965;28;20037;-68
2021/01/27 08:25:48;;;;;;;1.38;1.27;;;2.20;99.90;;;;;;5014435;28;20037;-68
2021/01/27 08:28:45;;;;;;;0.95;0.93;;;2.20;99.90;;;;;;5014312;28;20454;-68
2021/01/27 08:31:10;;;;;;;2.22;1.77;;;2.20;99.90;;;;;;5007560;28;20333;-68
2021/01/27 08:33:49;;;;;;;2.07;0.70;;;2.20;99.90;;;;;;5014850;28;20093;-68
2021/01/27 08:36:22;;;;;;;2.10;1.92;;;2.20;99.90;;;;;;5012299;28;20034;-68
2021/01/27 08:38:57;;;;;;;8.70;2.25;;;2.20;99.90;;;;;;5012690;28;20046;-68
2021/01/27 08:41:37;;;;;;;2.38;2.17;;;2.20;99.90;;;;;;5018583;28;20017;-68
2021/01/27 08:44:04;;;;;;;2.67;1.58;;;2.30;99.90;;;;;;5014921;28;20464;-68
2021/01/27 08:46:35;;;;;;;1.85;1.45;;;2.30;99.90;;;;;;5013015;28;21244;-68
2021/01/27 08:49:01;;;;;;;4.43;1.60;;;2.30;99.90;;;;;;5013499;28;20208;-68
2021/01/27 08:51:44;;;;;;;3.87;1.97;;;2.30;99.90;;;;;;5011367;28;20397;-68
2021/01/27 08:54:37;;;;;;;4.50;3.30;;;2.40;99.90;;;;;;5011936;28;20267;-68
2021/01/27 08:57:27;;;;;;;3.80;2.22;;;2.40;99.90;;;;;;5016400;28;20029;-68
2021/01/27 09:00:26;;;;;;;2.67;1.88;;;2.40;99.90;;;;;;5003169;28;20357;-68
2021/01/27 09:03:04;;;;;;;5.53;3.00;;;2.40;99.90;;;;;;5014945;28;20029;-68
2021/01/27 09:05:35;;;;;;;4.68;2.15;;;2.50;99.90;;;;;;5014397;28;20036;-68
2021/01/27 09:08:10;;;;;;;1.77;1.67;;;2.50;99.90;;;;;;5011739;28;20030;-69
2021/01/27 09:10:37;;;;;;;2.05;1.83;;;2.50;99.90;;;;;;5011865;28;20397;-68
2021/01/27 09:13:22;;;;;;;0.88;0.82;;;2.50;99.90;;;;;;5013858;28;20022;-69
2021/01/27 09:15:54;;;;;;;1.90;1.42;;;2.60;99.90;;;;;;5011530;28;20357;-68
2021/01/27 09:18:20;;;;;;;2.83;2.63;;;2.70;99.90;;;;;;5011898;28;20080;-68
2021/01/27 09:20:46;;;;;;;1.53;1.43;;;2.70;99.90;;;;;;5012230;28;20029;-68
2021/01/27 09:23:17;;;;;;;3.50;1.83;;;2.70;99.90;;;;;;5012259;28;20022;-68
2021/01/27 09:25:48;;;;;;;4.03;2.40;;;2.70;99.90;;;;;;5011582;28;20405;-68
2021/01/27 09:28:22;;;;;;;3.13;2.92;;;2.80;99.90;;;;;;5015854;28;20099;-68
2021/01/27 09:30:49;;;;;;;4.30;2.72;;;2.80;99.90;;;;;;5015773;28;20495;-68
2021/01/27 09:33:18;;;;;;;5.47;2.30;;;2.90;99.90;;;;;;5015908;28;20113;-68
2021/01/27 09:35:45;;;;;;;5.22;4.05;;;2.90;99.90;;;;;;5011734;28;20057;-68
2021/01/27 09:38:19;;;;;;;1.30;1.05;;;2.90;99.90;;;;;;5010810;28;20087;-68
2021/01/27 09:40:49;;;;;;;7.85;3.33;;;3.00;99.90;;;;;;5012408;28;20029;-68
2021/01/27 09:43:17;;;;;;;5.00;2.60;;;3.00;99.90;;;;;;5011738;28;20044;-68
2021/01/27 09:45:49;;;;;;;2.50;2.30;;;3.00;99.90;;;;;;5011850;28;20033;-67
2021/01/27 09:48:17;;;;;;;2.00;1.30;;;3.10;99.90;;;;;;5012335;28;20030;-67
2021/01/27 09:50:52;;;;;;;3.35;2.78;;;3.10;99.90;;;;;;5013701;28;20052;-68
2021/01/27 09:53:28;;;;;;;3.75;2.05;;;3.10;99.90;;;;;;5012305;28;20405;-68
2021/01/27 09:55:55;;;;;;;3.03;2.45;;;3.20;99.90;;;;;;5012107;28;20034;-68
2021/01/27 09:58:22;;;;;;;2.47;2.28;;;3.20;99.90;;;;;;5015132;28;20061;-67
2021/01/27 10:00:49;;;;;;;2.03;1.92;;;3.30;99.90;;;;;;5005112;28;20101;-67
2021/01/27 10:03:27;;;;;;;3.65;2.22;;;3.30;99.90;;;;;;5005185;28;20025;-67
2021/01/27 10:05:53;;;;;;;2.63;2.38;;;3.40;99.90;;;;;;5015686;28;20364;-67
2021/01/27 10:08:31;;;;;;;2.45;2.15;;;3.50;99.90;;;;;;5020290;28;20041;-67
2021/01/27 10:11:02;;;;;;;3.88;2.70;;;3.50;99.90;;;;;;5016300;28;20082;-68
2021/01/27 10:13:32;;;;;;;2.88;2.58;;;3.60;99.90;;;;;;5016588;28;20478;-67
2021/01/27 10:16:06;;;;;;;2.33;1.27;;;3.60;99.90;;;;;;5015897;28;20065;-67
2021/01/27 10:18:32;;;;;;;2.58;1.67;;;3.80;99.90;;;;;;5018361;28;20031;-67
2021/01/27 10:21:04;;;;;;;2.10;1.90;;;3.90;99.90;;;;;;5020134;28;20428;-68
2021/01/27 10:23:56;;;;;;;6.60;2.22;;;3.90;99.90;;;;;;5016608;28;20034;-67
2021/01/27 10:26:21;;;;;;;3.80;2.40;;;4.10;99.90;;;;;;5013189;28;20034;-68
2021/01/27 10:28:47;;;;;;;3.10;2.28;;;4.10;99.90;;;;;;5016304;28;20324;-68
2021/01/27 10:31:34;;;;;;;4.70;4.30;;;4.10;99.90;;;;;;5015552;28;20557;-68
2021/01/27 10:33:59;;;;;;;1.42;1.42;;;4.20;99.90;;;;;;5008938;28;20799;-68
2021/01/27 10:36:37;;;;;;;2.23;1.90;;;4.30;99.90;;;;;;5015977;28;20049;-68
2021/01/27 10:39:46;;;;;;;3.45;2.20;;;4.30;99.90;;;;;;5015205;28;20040;-68
2021/01/27 10:42:22;;;;;;;2.83;2.47;;;4.40;99.90;;;;;;5003206;28;20112;-68
2021/01/27 10:45:16;;;;;;;5.50;2.88;;;4.50;99.90;;;;;;5013481;28;20032;-68
2021/01/27 10:47:44;;;;;;;2.97;2.30;;;4.60;99.90;;;;;;5009363;28;20425;-68
2021/01/27 10:50:11;;;;;;;2.97;1.75;;;4.60;99.90;;;;;;5011153;28;20491;-68
2021/01/27 10:52:36;;;;;;;6.65;3.33;;;4.60;99.90;;;;;;5005840;28;20040;-68
2021/01/27 10:55:12;;;;;;;8.43;4.10;;;4.60;99.90;;;;;;5007531;28;20045;-68
2021/01/27 10:57:37;;;;;;;3.33;2.10;;;4.70;99.90;;;;;;5000566;28;20057;-68
2021/01/27 11:00:08;;;;;;;3.17;2.20;;;4.70;99.90;;;;;;5000651;28;20671;-68
2021/01/27 11:02:34;;;;;;;3.13;2.30;;;4.70;99.90;;;;;;4988771;28;20076;-68
2021/01/27 11:05:00;;;;;;;4.97;2.75;;;4.70;99.90;;;;;;5001497;28;20172;-68
2021/01/27 11:07:26;;;;;;;11.53;3.23;;;4.70;99.90;;;;;;4987678;28;20034;-68
2021/01/27 11:09:52;;;;;;;4.70;3.60;;;4.70;99.90;;;;;;5000748;28;20306;-68
2021/01/27 11:12:17;;;;;;;2.28;2.08;;;4.70;99.90;;;;;;4999557;28;20125;-68
2021/01/27 11:14:43;;;;;;;2.53;2.33;;;4.70;99.90;;;;;;4998688;28;20029;-68
2021/01/27 11:17:09;;;;;;;5.68;2.50;;;4.70;99.90;;;;;;5005448;28;20065;-68
2021/01/27 11:19:34;;;;;;;2.78;2.53;;;4.80;99.90;;;;;;5004915;28;20049;-68
2021/01/27 11:22:00;;;;;;;7.00;3.23;;;4.80;99.90;;;;;;5005234;28;20332;-68
2021/01/27 11:24:26;;;;;;;8.23;3.83;;;4.80;99.90;;;;;;5003947;28;20032;-68
2021/01/27 11:26:51;;;;;;;4.00;2.40;;;4.90;99.90;;;;;;5004201;28;20026;-68
2021/01/27 11:29:17;;;;;;;2.93;2.33;;;4.80;99.90;;;;;;5005152;28;20302;-68
2021/01/27 11:31:43;;;;;;;4.87;3.50;;;4.90;99.90;;;;;;5000733;28;20433;-68
2021/01/27 11:34:08;;;;;;;6.57;3.17;;;4.90;99.90;;;;;;5000177;28;20504;-67
2021/01/27 11:36:34;;;;;;;3.17;1.85;;;4.90;99.90;;;;;;4997525;28;20103;-68
2021/01/27 11:39:01;;;;;;;3.10;2.00;;;5.00;99.90;;;;;;5002695;28;20038;-68
2021/01/27 11:41:27;;;;;;;4.00;2.65;;;5.10;99.90;;;;;;5004550;28;20113;-68
2021/01/27 11:43:53;;;;;;;3.63;2.58;;;5.20;99.90;;;;;;5003606;28;20029;-68
2021/01/27 11:46:20;;;;;;;5.60;3.33;;;5.30;99.90;;;;;;5005527;28;20058;-68
2021/01/27 11:48:46;;;;;;;3.05;2.60;;;5.50;99.90;;;;;;4975078;28;794400;-68
2021/01/27 11:51:13;;;;;;;1.65;1.55;;;5.60;99.90;;;;;;5002022;28;20029;-68
2021/01/27 11:53:40;;;;;;;4.07;1.52;;;5.70;99.90;;;;;;5002714;28;20589;-68
2021/01/27 11:56:07;;;;;;;2.00;1.20;;;5.80;99.90;;;;;;5005250;28;20064;-68
2021/01/27 11:58:33;;;;;;;;;;;5.90;99.90;;;;;;5003545;28;20077;-68
2021/01/27 12:00:59;;;;;;;2.47;2.00;;;5.80;99.90;;;;;;5003763;28;19973;-68
2021/01/27 12:03:25;;;;;;;4.33;1.77;;;5.70;99.90;;;;;;5003470;28;20033;-68
2021/01/27 12:05:51;;;;;;;2.72;2.50;;;5.70;99.90;;;;;;4988920;28;20034;-68
2021/01/27 12:08:17;;;;;;;1.80;1.47;;;5.70;99.90;;;;;;5000769;28;20087;-68
2021/01/27 12:10:44;;;;;;;4.50;2.40;;;5.70;99.90;;;;;;4988964;28;20047;-69
2021/01/27 12:13:09;;;;;;;;;;;5.80;99.90;;;;;;4999803;28;20068;-69
2021/01/27 12:15:35;;;;;;;2.07;1.87;;;5.80;99.90;;;;;;4999142;28;20000;-69
2021/01/27 12:18:01;;;;;;;4.20;2.53;;;5.90;99.90;;;;;;4998655;28;20806;-68
2021/01/27 12:20:26;;;;;;;5.70;2.63;;;6.00;99.90;;;;;;4998442;28;20417;-68
2021/01/27 12:22:52;;;;;;;3.43;2.27;;;6.00;99.90;;;;;;5000883;28;20030;-68
2021/01/27 12:25:18;;;;;;;2.83;1.98;;;6.10;99.90;;;;;;5002207;28;20033;-69
2021/01/27 12:27:43;;;;;;;1.93;1.80;;;6.20;99.90;;;;;;5002957;28;20018;-68
2021/01/27 12:30:11;;;;;;;2.13;1.93;;;6.30;99.90;;;;;;5005754;28;20041;-68
2021/01/27 12:32:37;;;;;;;2.20;1.40;;;6.30;99.90;;;;;;5002490;28;20026;-69
2021/01/27 12:35:05;;;;;;;2.00;1.88;;;6.40;99.90;;;;;;5002578;28;20147;-69
2021/01/27 12:37:30;;;;;;;1.80;0.95;;;6.40;99.90;;;;;;5003143;28;20041;-69
2021/01/27 12:39:56;;;;;;;1.10;1.00;;;6.50;99.90;;;;;;5004903;28;20621;-68
2021/01/27 12:42:22;;;;;;;1.90;1.80;;;6.50;99.90;;;;;;5003351;28;20609;-69
2021/01/27 12:44:48;;;;;;;1.57;1.47;;;6.60;99.90;;;;;;5007095;28;20026;-68
2021/01/27 12:47:13;;;;;;;6.90;2.47;;;6.70;99.90;;;;;;5009287;28;20032;-69
2021/01/27 12:49:40;;;;;;;3.27;1.57;;;6.80;99.90;;;;;;5008059;28;20053;-69
2021/01/27 12:52:06;;;;;;;0.85;0.85;;;6.80;99.90;;;;;;5006834;28;20048;-68
2021/01/27 12:54:33;;;;;;;3.15;2.00;;;6.90;99.90;;;;;;5006914;28;20452;-69
2021/01/27 12:56:58;;;;;;;3.45;2.70;;;6.90;99.90;;;;;;5008172;28;20072;-68
2021/01/27 12:59:24;;;;;;;0.85;0.85;;;7.00;99.90;;;;;;5012107;28;20089;-68
2021/01/27 13:01:51;;;;;;;5.83;1.73;;;7.00;99.90;;;;;;5007744;28;20535;-68
2021/01/27 13:04:17;;;;;;;1.42;1.23;;;7.10;99.90;;;;;;5007517;28;20117;-69
2021/01/27 13:06:42;;;;;;;1.50;1.03;;;7.10;99.90;;;;;;5010838;28;20519;-68
2021/01/27 13:09:08;;;;;;;5.80;2.03;;;7.10;99.90;;;;;;5006571;28;20060;-69
2021/01/27 13:11:34;;;;;;;0.77;0.77;;;7.10;99.90;;;;;;4993301;28;20112;-69
2021/01/27 13:14:00;;;;;;;0.43;0.43;;;7.00;99.90;;;;;;5006904;28;20112;-69
2021/01/27 13:16:27;;;;;;;1.50;1.30;;;7.00;99.90;;;;;;4996868;28;20052;-68
2021/01/27 13:18:53;;;;;;;2.60;1.48;;;7.00;99.90;;;;;;5009854;28;20029;-69
2021/01/27 13:21:18;;;;;;;0.55;0.55;;;7.00;99.90;;;;;;5007584;28;20022;-68
2021/01/27 13:23:47;;;;;;;1.20;1.13;;;7.00;99.90;;;;;;5007562;28;20100;-68
2021/01/27 13:26:15;;;;;;;6.97;2.40;;;7.00;99.90;;;;;;5009132;28;20325;-68
2021/01/27 13:28:41;;;;;;;7.70;2.92;;;7.00;99.90;;;;;;5014661;28;20112;-68